Swindon, United Kingdom
Current Conditions -  °F | °C
As of 6:58 PM on Saturday 25 Oct 2014 (Local Time) from EGVA Reporting Station
Broken Clouds Broken Clouds  
Wind Chill: 54°   Ceiling: 4000
Heat Index: 54°   Visibility: 6mi
Dew Point: 47°   Wind: 10mph
Humidity: 79%   Direction: 230°SW
Pressure: 30.07"   Gusts: NA
Location:  51.56°N, 1.77°W
Report Text: EGVA 251758Z AUTO 23009KT 9999 FEW026 BKN040 12/09 A3007 RMK AO2 SLP187 P0688 611035 T01210086 10150 20121 52012
Loading
Personal Weather Stations






























Interactive Weather Map
Tropical Storm Tracking
New forecast layout! Learn more

10-Day Weather Forecast

Advertisements
Track Severe Weather on mobile